Orbital elements of FENGYUN 1C DEB
| Launched | 9 May 1999 |
| Flight ended | – |
| Launch site | Taiyuan Space Center, PRC |
| Owner | People's Republic of China |
| NORAD ID | 29898 |
| Date fetched |
Epoch osculation |
Inc. [°] |
Ecc. | RA asc node [hr] |
Arg Peri. [°] |
Mean anom [°] |
Mean motion [rev/day] |
Abs. mag |
| Date fetched |
Epoch osculation |
Inc. [°] |
Ecc. | RA asc node [hr] |
Arg Peri. [°] |
Mean anom [°] |
Mean motion [rev/day] |
Abs. mag |
| 2026 May 03 17:57 | 2026 Apr 30 11:29:27 | 98.2340 | 0.04223 | 6.5630 | 174.3539 | 314.3193 | 13.71651 | – |
| 2026 May 02 17:57 | 2026 Apr 30 11:29:27 | 98.2340 | 0.04223 | 6.5630 | 174.3539 | 314.3193 | 13.71651 | – |
| 2026 May 01 17:56 | 2026 Apr 30 11:29:27 | 98.2340 | 0.04223 | 6.5630 | 174.3539 | 314.3193 | 13.71651 | – |
| 2026 Apr 30 17:56 | 2026 Apr 30 11:29:27 | 98.2340 | 0.04223 | 6.5630 | 174.3539 | 314.3193 | 13.71651 | – |
| 2026 Apr 29 17:57 | 2026 Apr 24 10:19:00 | 98.2352 | 0.04217 | 6.2155 | 190.7757 | 314.3193 | 13.71651 | – |
| 2026 Apr 28 17:56 | 2026 Apr 24 10:19:00 | 98.2352 | 0.04217 | 6.2155 | 190.7757 | 314.3193 | 13.71651 | – |
| 2026 Apr 27 17:58 | 2026 Apr 24 10:19:00 | 98.2352 | 0.04217 | 6.2155 | 190.7757 | 314.3193 | 13.71651 | – |
| 2026 Apr 26 17:58 | 2026 Apr 24 10:19:00 | 98.2352 | 0.04217 | 6.2155 | 190.7757 | 314.3193 | 13.71651 | – |
| 2026 Apr 25 17:58 | 2026 Apr 24 10:19:00 | 98.2352 | 0.04217 | 6.2155 | 190.7757 | 314.3193 | 13.71651 | – |
| 2026 Apr 24 17:59 | 2026 Apr 24 10:19:00 | 98.2352 | 0.04217 | 6.2155 | 190.7757 | 314.3193 | 13.71651 | – |
| 2026 Apr 23 17:57 | 2026 Apr 17 17:21:43 | 98.2356 | 0.04213 | 5.8302 | 208.9915 | 314.3193 | 13.71651 | – |
| 2026 Apr 22 17:57 | 2026 Apr 17 17:21:43 | 98.2356 | 0.04213 | 5.8302 | 208.9915 | 314.3193 | 13.71651 | – |
| 2026 Apr 21 17:57 | 2026 Apr 17 17:21:43 | 98.2356 | 0.04213 | 5.8302 | 208.9915 | 314.3193 | 13.71651 | – |
| 2026 Apr 20 17:57 | 2026 Apr 17 17:21:43 | 98.2356 | 0.04213 | 5.8302 | 208.9915 | 314.3193 | 13.71651 | – |
| 2026 Apr 19 17:58 | 2026 Apr 17 17:21:43 | 98.2356 | 0.04213 | 5.8302 | 208.9915 | 314.3193 | 13.71651 | – |
| 2026 Apr 18 17:56 | 2026 Apr 12 21:04:35 | 98.2349 | 0.04212 | 5.5517 | 222.1522 | 314.3193 | 13.71651 | – |
| 2026 Apr 16 17:57 | 2026 Apr 12 21:04:35 | 98.2349 | 0.04212 | 5.5517 | 222.1522 | 314.3193 | 13.71651 | – |
| 2026 Apr 14 17:57 | 2026 Apr 12 21:04:35 | 98.2349 | 0.04212 | 5.5517 | 222.1522 | 314.3193 | 13.71651 | – |
| 2026 Apr 13 17:57 | 2026 Apr 12 21:04:35 | 98.2349 | 0.04212 | 5.5517 | 222.1522 | 314.3193 | 13.71651 | – |
| 2026 Apr 12 17:57 | 2026 Apr 07 22:00:26 | 98.2360 | 0.04212 | 5.2667 | 235.6366 | 314.3193 | 13.71651 | – |
| 2026 Apr 11 17:57 | 2026 Apr 07 22:00:26 | 98.2360 | 0.04212 | 5.2667 | 235.6366 | 314.3193 | 13.71651 | – |
| 2026 Apr 10 17:58 | 2026 Apr 07 22:00:26 | 98.2360 | 0.04212 | 5.2667 | 235.6366 | 314.3193 | 13.71651 | – |
| 2026 Apr 09 18:01 | 2026 Apr 07 22:00:26 | 98.2360 | 0.04212 | 5.2667 | 235.6366 | 314.3193 | 13.71651 | – |
| 2026 Apr 08 17:57 | 2026 Apr 07 22:00:26 | 98.2360 | 0.04212 | 5.2667 | 235.6366 | 314.3193 | 13.71651 | – |
| 2026 Apr 07 17:57 | 2026 Apr 02 05:23:28 | 98.2353 | 0.04215 | 4.9396 | 251.1179 | 314.3193 | 13.71651 | – |
| 2026 Apr 06 17:57 | 2026 Apr 02 05:23:28 | 98.2353 | 0.04215 | 4.9396 | 251.1179 | 314.3193 | 13.71651 | – |